Time;durP1;ratioP1;P1;durP2;ratioP2;P2;SDS_P1;SDS_P2;PMS_P1;PMS_P2;Temp;Humidity;BMP_temperature;BMP_pressure;BME280_temperature;BME280_humidity;BME280_pressure;Samples;Min_cycle;Max_cycle;Signal;HPM_P1;HPM_P2
2022/11/16 00:04:00;;;;;;;7.47;4.35;;;;;;;10.81;75.22;99071.84;10141245;29;20072;-80
2022/11/16 00:09:22;;;;;;;5.03;4.50;;;;;;;10.62;75.17;99066.69;10125609;29;20125;-79
2022/11/16 00:14:28;;;;;;;5.07;4.57;;;;;;;10.36;77.68;99075.50;10097680;29;20083;-78
2022/11/16 00:19:31;;;;;;;7.93;5.43;;;;;;;10.14;80.32;99068.78;10098318;29;20079;-77
2022/11/16 00:24:34;;;;;;;6.78;5.13;;;;;;;10.03;81.50;99058.28;10124416;29;20041;-78
2022/11/16 00:29:38;;;;;;;8.20;5.20;;;;;;;9.87;82.20;99067.03;10099245;29;20123;-77
2022/11/16 00:34:42;;;;;;;6.90;5.43;;;;;;;9.84;82.47;99053.03;10115533;29;20046;-78
2022/11/16 00:39:44;;;;;;;;;;;;;;;9.84;83.40;99053.03;10124776;29;20609;-78
2022/11/16 00:44:48;;;;;;;9.25;6.78;;;;;;;9.79;84.29;99042.78;10112120;29;19971;-78
2022/11/16 00:49:52;;;;;;;12.55;7.68;;;;;;;9.67;85.17;99033.25;10103612;29;20044;-79
2022/11/16 00:54:55;;;;;;;10.25;7.50;;;;;;;9.51;85.80;99029.38;10113100;29;20080;-80
2022/11/16 01:00:00;;;;;;;11.40;8.48;;;;;;;9.55;86.60;99021.06;10140839;29;20084;-78
2022/11/16 01:05:06;;;;;;;14.30;8.27;;;;;;;9.54;86.56;99025.56;10129955;29;20044;-79
2022/11/16 01:10:12;;;;;;;11.88;8.30;;;;;;;9.46;86.88;99017.44;10130613;29;20056;-80
2022/11/16 01:15:20;;;;;;;12.55;8.50;;;;;;;9.42;86.73;99021.41;10134656;29;20076;-79
2022/11/16 01:20:25;;;;;;;10.38;8.63;;;;;;;9.38;87.21;99007.50;10138839;29;20073;-81
2022/11/16 01:25:27;;;;;;;13.40;8.23;;;;;;;9.32;88.53;99009.91;10156469;29;20074;-80
2022/11/16 01:30:32;;;;;;;11.35;8.27;;;;;;;9.18;88.62;98996.00;10160552;29;20063;-82
2022/11/16 01:35:42;;;;;;;12.13;8.10;;;;;;;9.18;88.57;99003.22;10164727;23;20048;-76
2022/11/16 01:40:46;;;;;;;15.95;8.75;;;;;;;9.13;88.92;98987.56;10117222;29;20065;-76
2022/11/16 01:45:53;;;;;;;13.80;9.55;;;;;;;9.19;89.02;98980.81;10107541;29;20503;-76
2022/11/16 01:50:58;;;;;;;11.55;8.00;;;;;;;9.03;89.44;98968.88;10112727;29;20052;-76
2022/11/16 01:56:04;;;;;;;11.70;8.70;;;;;;;9.12;90.82;98969.00;10109962;29;20464;-77
2022/11/16 02:01:27;;;;;;;14.40;8.97;;;;;;;9.02;90.12;98966.34;10104810;29;20053;-76
2022/11/16 02:06:58;;;;;;;13.18;8.55;;;;;;;9.01;90.48;98957.47;10092725;29;20486;-77
2022/11/16 02:12:16;;;;;;;10.75;8.85;;;;;;;8.97;90.24;98958.78;10124078;29;20053;-76
2022/11/16 02:17:32;;;;;;;13.43;9.25;;;;;;;9.06;90.22;98957.03;10104516;29;20065;-77
2022/11/16 02:22:53;;;;;;;14.40;9.73;;;;;;;9.09;90.63;98951.38;10117203;29;20452;-77
2022/11/16 02:28:13;;;;;;;15.15;9.60;;;;;;;9.00;91.27;98945.09;10092430;29;20119;-77
2022/11/16 02:33:22;;;;;;;14.50;9.40;;;;;;;8.78;91.93;98937.47;10101354;29;20060;-77
2022/11/16 02:38:28;;;;;;;16.13;10.55;;;;;;;8.84;92.24;98921.63;10110061;29;20052;-77
2022/11/16 02:43:37;;;;;;;13.77;9.63;;;;;;;8.86;92.24;98917.94;10126721;29;20466;-77
2022/11/16 02:48:47;;;;;;;14.98;9.43;;;;;;;8.91;91.78;98916.50;10134657;29;20099;-77
2022/11/16 02:54:01;;;;;;;13.32;8.75;;;;;;;8.95;94.98;98915.22;10097263;29;20246;-77
2022/11/16 02:59:05;;;;;;;14.05;8.93;;;;;;;8.91;93.69;98905.78;10111643;29;20144;-78
2022/11/16 03:04:15;;;;;;;17.08;10.55;;;;;;;8.87;92.89;98907.09;10124438;29;20045;-78
2022/11/16 03:09:23;;;;;;;14.73;10.07;;;;;;;8.94;92.34;98900.16;10131864;29;20136;-78
2022/11/16 03:14:32;;;;;;;17.55;10.45;;;;;;;8.73;93.11;98907.59;10130431;29;20045;-78
2022/11/16 03:19:41;;;;;;;14.82;10.63;;;;;;;8.84;93.34;98907.41;10125464;29;20546;-79
2022/11/16 03:24:45;;;;;;;13.60;10.02;;;;;;;8.71;93.95;98901.56;10123877;29;20041;-78
2022/11/16 03:29:59;;;;;;;16.38;10.38;;;;;;;8.76;93.80;98904.63;10125888;29;20053;-78
2022/11/16 03:35:08;;;;;;;19.15;10.80;;;;;;;8.78;93.75;98895.47;10125912;29;20084;-78
2022/11/16 03:40:13;;;;;;;16.55;11.27;;;;;;;8.76;93.70;98892.09;10122180;29;20139;-79
2022/11/16 03:45:18;;;;;;;14.98;9.98;;;;;;;8.72;93.08;98888.03;10120507;29;20071;-78
2022/11/16 03:50:25;;;;;;;14.38;10.52;;;;;;;8.70;93.98;98884.66;10126069;29;20057;-77
2022/11/16 03:55:28;;;;;;;16.38;10.45;;;;;;;8.60;94.78;98884.69;10120380;29;20048;-78
2022/11/16 04:00:33;;;;;;;16.42;11.50;;;;;;;8.59;94.82;98880.34;10125817;29;20053;-78
2022/11/16 04:37:59;;;;;;;19.75;12.70;;;;;;;8.51;95.30;98880.22;10134673;29;20063;-79
2022/11/16 04:43:07;;;;;;;18.80;11.65;;;;;;;8.49;95.24;98889.41;10117358;29;20140;-79
2022/11/16 04:48:15;;;;;;;20.92;12.70;;;;;;;8.50;94.69;98883.91;10138552;29;20049;-79
2022/11/16 04:53:21;;;;;;;19.70;12.50;;;;;;;8.39;96.70;98890.25;10123184;29;20068;-78
2022/11/16 04:58:32;;;;;;;21.48;14.10;;;;;;;8.51;95.33;98880.22;10119868;29;20566;-77
2022/11/16 05:03:36;;;;;;;21.90;14.10;;;;;;;8.65;94.79;98883.41;10116270;29;20120;-76
2022/11/16 05:08:40;;;;;;;21.52;13.88;;;;;;;8.54;94.69;98873.75;10111963;29;20056;-78
2022/11/16 05:13:45;;;;;;;24.60;15.48;;;;;;;8.54;94.38;98877.25;10134246;29;20470;-78
2022/11/16 05:20:59;;;;;;;25.52;14.35;;;;;;;8.49;94.66;98870.66;10111917;29;20132;-78
2022/11/16 05:29:36;;;;;;;26.48;14.48;;;;;;;8.52;95.18;98871.19;10106818;29;20529;-76
2022/11/16 05:34:39;;;;;;;25.35;15.57;;;;;;;8.57;94.88;98873.44;10117248;29;20498;-76
2022/11/16 05:39:46;;;;;;;21.95;14.13;;;;;;;8.52;94.74;98879.22;10134704;29;20074;-77
2022/11/16 05:44:50;;;;;;;24.25;15.48;;;;;;;8.61;94.49;98880.16;10150581;29;20049;-76
2022/11/16 05:49:53;;;;;;;22.85;15.35;;;;;;;8.48;94.65;98872.50;10111907;29;20148;-78
2022/11/16 05:54:58;;;;;;;22.63;15.05;;;;;;;8.57;94.09;98874.28;10105654;29;20097;-78
2022/11/16 06:00:05;;;;;;;24.42;15.98;;;;;;;8.56;94.40;98877.97;10107427;29;20063;-78
2022/11/16 06:05:16;;;;;;;23.77;15.05;;;;;;;8.44;94.81;98884.44;10120212;29;20131;-77
2022/11/16 06:10:21;;;;;;;22.20;15.13;;;;;;;8.54;95.31;98893.31;10117081;29;20080;-77
2022/11/16 06:15:26;;;;;;;25.95;14.93;;;;;;;8.54;94.62;98889.78;10103111;29;20080;-77
2022/11/16 06:20:29;;;;;;;24.52;15.90;;;;;;;8.63;94.43;98906.81;10116798;29;20049;-76
2022/11/16 06:25:33;;;;;;;26.05;16.75;;;;;;;8.65;94.11;98902.97;10120589;29;20140;-76
2022/11/16 06:30:38;;;;;;;25.17;16.85;;;;;;;8.67;93.91;98908.22;10105120;29;20137;-77
2022/11/16 06:35:42;;;;;;;33.08;16.73;;;;;;;8.63;94.21;98913.00;10124821;29;20080;-77
2022/11/16 06:40:52;;;;;;;23.73;14.52;;;;;;;8.70;93.81;98911.41;10125288;29;20053;-77
2022/11/16 06:45:57;;;;;;;23.67;15.68;;;;;;;8.70;93.79;98913.25;10129536;29;20052;-77
2022/11/16 06:51:00;;;;;;;29.08;15.52;;;;;;;8.47;94.49;98926.16;10115118;29;20495;-76
2022/11/16 06:56:06;;;;;;;29.65;16.77;;;;;;;8.66;94.30;98923.41;10123697;29;20048;-76
2022/11/16 07:01:15;;;;;;;24.48;15.15;;;;;;;8.67;93.31;98938.50;10129713;29;20053;-77
2022/11/16 07:06:19;;;;;;;25.05;16.00;;;;;;;8.84;94.08;98945.72;10110029;29;20088;-78
2022/11/16 07:11:26;;;;;;;18.45;12.88;;;;;;;8.89;93.55;98947.13;10116323;29;20064;-78
2022/11/16 07:16:29;;;;;;;20.27;13.63;;;;;;;8.86;93.64;98966.16;10106506;29;20044;-78
2022/11/16 07:21:38;;;;;;;19.88;14.35;;;;;;;8.94;93.45;98959.09;10122233;29;20135;-79
2022/11/16 07:26:48;;;;;;;19.30;14.02;;;;;;;8.82;93.99;98963.75;10127001;29;20056;-78
2022/11/16 07:31:55;;;;;;;21.02;13.20;;;;;;;8.96;93.96;98969.63;10107710;29;20060;-77
2022/11/16 07:37:20;;;;;;;18.40;13.70;;;;;;;8.98;93.74;98968.50;10137583;23;20059;-78
2022/11/16 07:42:24;;;;;;;19.10;13.43;;;;;;;8.93;93.86;98978.81;10129577;29;20049;-78
2022/11/16 07:47:53;;;;;;;20.63;14.05;;;;;;;8.92;93.85;98973.59;10134289;29;20049;-79
2022/11/16 07:53:14;;;;;;;21.33;14.43;;;;;;;8.95;94.21;98974.16;10124943;29;20054;-78
2022/11/16 07:58:18;;;;;;;23.00;15.55;;;;;;;9.00;94.42;98981.75;10119701;29;20433;-77
2022/11/16 08:03:21;;;;;;;24.92;17.42;;;;;;;8.94;94.12;98993.91;10132950;29;20073;-77
2022/11/16 08:08:29;;;;;;;24.77;16.42;;;;;;;9.11;93.81;99010.19;10112576;29;20053;-78
2022/11/16 08:13:35;;;;;;;23.42;15.60;;;;;;;9.23;93.79;99003.63;10135390;29;20059;-78
2022/11/16 08:18:40;;;;;;;23.15;16.42;;;;;;;9.20;93.49;99015.47;10136891;29;20100;-79
2022/11/16 08:23:44;;;;;;;26.23;15.63;;;;;;;9.25;94.07;99017.72;10129020;29;20139;-78
2022/11/16 08:28:52;;;;;;;23.08;15.82;;;;;;;9.20;93.63;99028.03;10139924;29;20048;-78
2022/11/16 08:34:00;;;;;;;25.67;16.73;;;;;;;9.21;93.97;99030.53;10127697;29;20048;-79
2022/11/16 08:39:03;;;;;;;32.90;19.17;;;;;;;9.13;93.66;99029.59;10134209;29;20139;-79
2022/11/16 08:44:09;;;;;;;26.95;18.20;;;;;;;9.18;94.00;99028.16;10126173;29;20052;-78
2022/11/16 08:49:14;;;;;;;28.25;18.05;;;;;;;9.28;93.94;99023.59;10133660;29;20051;-79
2022/11/16 08:54:17;;;;;;;31.17;18.52;;;;;;;9.29;93.96;99024.44;10146090;29;20116;-80
2022/11/16 08:59:21;;;;;;;30.08;18.77;;;;;;;9.35;93.91;99029.22;10142734;29;20052;-79
2022/11/16 09:04:27;;;;;;;27.52;17.83;;;;;;;9.34;94.10;99032.88;10141578;29;20044;-80
2022/11/16 09:09:37;;;;;;;25.42;16.15;;;;;;;9.37;94.25;99024.53;10133803;29;20052;-80
2022/11/16 09:14:41;;;;;;;21.25;15.32;;;;;;;9.44;94.42;99024.81;10138852;29;20045;-79
2022/11/16 09:19:44;;;;;;;22.65;15.63;;;;;;;9.61;94.57;99036.53;10149540;29;20132;-79
2022/11/16 09:24:47;;;;;;;22.27;15.50;;;;;;;9.73;94.37;99032.63;10135908;29;20053;-79
2022/11/16 09:29:51;;;;;;;27.60;17.33;;;;;;;9.75;94.68;99045.91;10135920;29;20044;-79
2022/11/16 09:34:54;;;;;;;26.75;18.30;;;;;;;9.77;94.28;99043.94;10130349;29;20044;-80
2022/11/16 09:39:57;;;;;;;27.10;16.23;;;;;;;9.67;93.59;99047.50;10141669;29;20044;-79
2022/11/16 09:45:06;;;;;;;24.20;15.25;;;;;;;9.65;94.16;99052.19;10129127;29;20055;-79
2022/11/16 09:50:22;;;;;;;24.50;16.58;;;;;;;9.69;94.48;99055.41;10143009;29;20502;-80
2022/11/16 09:55:32;;;;;;;25.08;15.48;;;;;;;9.84;93.81;99059.22;10132938;29;20083;-80
2022/11/16 10:00:37;;;;;;;27.42;15.50;;;;;;;9.81;93.56;99062.22;10129403;29;20456;-79
2022/11/16 10:05:46;;;;;;;23.08;15.63;;;;;;;9.81;94.00;99064.06;10120522;29;20051;-78
2022/11/16 10:10:58;;;;;;;21.67;15.27;;;;;;;9.80;93.76;99060.53;10141529;29;20049;-78
2022/11/16 10:16:08;;;;;;;23.40;16.05;;;;;;;9.85;93.70;99068.16;10118630;29;20052;-78
2022/11/16 10:21:39;;;;;;;24.60;16.27;;;;;;;10.06;94.49;99059.81;10142815;29;20079;-80
2022/11/16 10:26:51;;;;;;;23.30;14.75;;;;;;;10.11;93.68;99062.88;10127564;29;20061;-79
2022/11/16 10:32:07;;;;;;;18.90;13.17;;;;;;;10.12;93.35;99057.38;10141571;29;20060;-79
2022/11/16 10:37:13;;;;;;;19.48;13.18;;;;;;;10.24;94.48;99066.03;10132517;29;20045;-78
2022/11/16 10:42:20;;;;;;;15.15;11.60;;;;;;;10.34;94.41;99049.84;10151975;29;20047;-79
2022/11/16 10:47:32;;;;;;;18.35;11.95;;;;;;;10.44;94.80;99061.31;10162072;29;20048;-80
2022/11/16 10:52:35;;;;;;;16.35;10.75;;;;;;;10.60;96.35;99039.13;10136253;29;20057;-79
2022/11/16 10:57:54;;;;;;;13.50;9.60;;;;;;;11.18;97.19;99037.66;10133018;29;20040;-80
2022/11/16 11:02:58;;;;;;;9.85;7.05;;;;;;;11.19;93.85;99037.50;10118080;29;20053;-81
2022/11/16 11:08:03;;;;;;;7.25;6.13;;;;;;;11.09;95.44;99038.59;10136445;29;20071;-80
2022/11/16 11:13:20;;;;;;;8.82;5.18;;;;;;;11.11;94.78;99045.50;10134951;29;20073;-80
2022/11/16 11:18:29;;;;;;;10.15;5.43;;;;;;;10.91;94.58;99054.75;10123015;29;20100;-79
2022/11/16 11:23:40;;;;;;;10.82;5.65;;;;;;;10.76;94.44;99059.88;10153779;29;20080;-79
2022/11/16 11:28:49;;;;;;;8.13;5.13;;;;;;;10.83;94.55;99051.06;10157480;29;20104;-81
2022/11/16 11:33:56;;;;;;;7.95;5.63;;;;;;;10.95;95.44;99051.63;10127904;29;20068;-81
2022/11/16 11:39:02;;;;;;;8.18;4.80;;;;;;;10.95;93.84;99050.78;10137973;29;20052;-81
2022/11/16 11:44:13;;;;;;;9.82;5.43;;;;;;;11.04;93.53;99047.97;10122365;29;20092;-81
2022/11/16 11:49:23;;;;;;;13.55;6.57;;;;;;;11.61;95.08;99047.41;10130910;29;20045;-81
2022/11/16 11:54:38;;;;;;;8.02;5.05;;;;;;;11.59;93.39;99045.88;10111221;29;20048;-81
2022/11/16 11:59:48;;;;;;;7.47;4.93;;;;;;;11.87;92.55;99038.38;10119988;29;20298;-81
2022/11/16 12:05:33;;;;;;;8.40;4.18;;;;;;;12.19;85.14;99040.25;10127553;29;20079;-80
2022/11/16 12:10:45;;;;;;;8.48;4.00;;;;;;;12.72;84.43;99036.22;10131211;29;20494;-80
2022/11/16 12:16:01;;;;;;;5.28;2.45;;;;;;;12.00;76.41;99032.50;10137881;29;20060;-81
2022/11/16 12:21:12;;;;;;;6.82;2.55;;;;;;;11.81;79.45;99034.50;10128856;29;20410;-81
2022/11/16 12:26:26;;;;;;;7.40;2.55;;;;;;;11.49;72.97;99036.09;10122635;29;20052;-80
2022/11/16 12:31:51;;;;;;;7.43;2.90;;;;;;;12.16;79.59;99032.53;10132358;29;20107;-81
2022/11/16 12:37:04;;;;;;;6.03;2.50;;;;;;;12.73;77.91;99035.22;10114664;29;20061;-80
2022/11/16 12:42:22;;;;;;;6.05;3.05;;;;;;;12.99;79.23;99031.44;10123858;29;20518;-79
2022/11/16 12:47:37;;;;;;;8.00;2.60;;;;;;;13.23;74.60;99030.53;10117071;29;20045;-79
2022/11/16 12:53:05;;;;;;;6.22;2.55;;;;;;;12.68;70.87;99028.66;10125136;29;20537;-79
2022/11/16 12:58:19;;;;;;;7.03;3.15;;;;;;;12.49;67.78;99019.94;10104579;29;20056;-81
2022/11/16 13:03:29;;;;;;;7.97;2.00;;;;;;;12.51;67.27;99017.91;10111453;29;20049;-80
2022/11/16 13:08:39;;;;;;;4.72;2.10;;;;;;;12.82;73.26;98995.63;10128262;29;20045;-80
2022/11/16 13:13:44;;;;;;;5.45;2.15;;;;;;;13.37;71.82;99002.88;10111586;29;20059;-80
2022/11/16 13:18:55;;;;;;;10.75;2.75;;;;;;;12.81;64.10;99004.75;10118035;29;20053;-79
2022/11/16 13:24:24;;;;;;;10.85;3.38;;;;;;;12.19;65.28;98997.19;10125098;29;20052;-80
2022/11/16 13:29:34;;;;;;;9.50;2.85;;;;;;;11.95;71.67;98995.34;10104929;29;20517;-80
2022/11/16 13:34:39;;;;;;;10.63;2.55;;;;;;;12.00;70.71;98990.28;10112229;29;20064;-80
2022/11/16 13:40:13;;;;;;;11.88;3.20;;;;;;;12.40;74.08;98988.66;10179824;23;20175;-79
2022/11/16 13:45:21;;;;;;;7.63;2.15;;;;;;;13.35;76.84;98982.44;10157628;29;20110;-79
2022/11/16 13:50:30;;;;;;;9.40;2.45;;;;;;;13.90;72.27;98979.63;10122940;29;20069;-79
2022/11/16 13:55:43;;;;;;;5.28;2.58;;;;;;;14.35;68.58;98977.88;10122716;29;20056;-79
2022/11/16 14:01:00;;;;;;;6.18;2.45;;;;;;;15.36;69.15;98970.22;10128154;29;20147;-77
2022/11/16 14:06:03;;;;;;;6.70;2.60;;;;;;;15.81;67.35;98962.81;10126777;29;20094;-78
2022/11/16 14:11:29;;;;;;;5.32;1.70;;;;;;;14.78;62.85;98961.09;10115370;29;20047;-77
2022/11/16 14:16:47;;;;;;;5.18;1.50;;;;;;;14.05;59.95;98965.34;10135018;29;20051;-78
2022/11/16 14:22:00;;;;;;;5.80;1.10;;;;;;;13.92;61.30;98957.84;10124028;29;20073;-78
2022/11/16 14:27:14;;;;;;;5.03;1.98;;;;;;;13.41;56.46;98969.13;10129603;29;20100;-77
2022/11/16 14:32:21;;;;;;;7.63;1.67;;;;;;;12.90;58.13;98970.50;10128376;29;20048;-79
2022/11/16 14:37:31;;;;;;;5.70;1.33;;;;;;;12.92;59.32;98968.50;10150047;29;20051;-78
2022/11/16 14:42:44;;;;;;;4.20;1.15;;;;;;;13.72;58.06;98976.38;10146733;29;20064;-78
2022/11/16 14:48:15;;;;;;;5.95;1.52;;;;;;;14.20;58.31;98958.09;10128746;29;20045;-78
2022/11/16 14:53:19;;;;;;;7.63;1.73;;;;;;;13.97;57.76;98965.41;10132891;29;20068;-79
2022/11/16 14:58:24;;;;;;;6.88;1.42;;;;;;;13.93;58.96;98965.75;10136769;29;20127;-79
2022/11/16 15:03:30;;;;;;;10.00;2.00;;;;;;;13.90;59.10;98962.56;10134729;29;20053;-78
2022/11/16 15:08:38;;;;;;;3.55;1.45;;;;;;;13.47;59.67;98963.03;10126535;29;20057;-78
2022/11/16 15:13:45;;;;;;;4.85;1.85;;;;;;;12.62;61.13;98967.41;10124082;29;20165;-78
2022/11/16 15:18:59;;;;;;;4.22;1.23;;;;;;;12.05;62.93;98970.97;10117616;29;20695;-78
2022/11/16 15:24:03;;;;;;;6.13;1.80;;;;;;;11.72;64.53;98977.16;10129254;29;20072;-78
2022/11/16 15:29:27;;;;;;;5.68;2.50;;;;;;;11.34;65.91;98969.69;10146296;29;20080;-78
2022/11/16 15:34:31;;;;;;;6.65;2.38;;;;;;;11.02;67.19;98971.19;10131441;29;20392;-79
2022/11/16 15:39:36;;;;;;;4.93;2.33;;;;;;;10.78;68.39;98975.47;10118027;29;20045;-79
2022/11/16 15:44:40;;;;;;;7.05;3.65;;;;;;;10.61;69.48;98973.69;10152355;29;20048;-79
2022/11/16 15:49:48;;;;;;;10.35;4.25;;;;;;;10.41;70.45;98970.38;10124431;29;20041;-79
2022/11/16 15:55:03;;;;;;;10.50;3.60;;;;;;;10.23;71.38;98973.13;10130603;29;20048;-77
2022/11/16 16:00:22;;;;;;;14.30;4.80;;;;;;;10.05;72.20;98970.44;10137187;29;20045;-78
2022/11/16 16:05:33;;;;;;;8.55;4.88;;;;;;;9.94;72.86;98968.00;10130996;29;20041;-77
2022/11/16 16:10:36;;;;;;;8.23;4.07;;;;;;;9.79;73.26;98974.88;10103891;29;20467;-78
2022/11/16 16:15:40;;;;;;;7.10;4.22;;;;;;;9.65;74.21;98977.13;10108291;29;20076;-77
2022/11/16 16:20:47;;;;;;;7.20;4.10;;;;;;;9.54;74.71;98973.78;10125440;29;20060;-79
2022/11/16 16:25:50;;;;;;;11.73;4.57;;;;;;;9.42;75.05;98965.13;10116118;29;20418;-79
2022/11/16 16:30:54;;;;;;;;;;;;;;;9.30;75.29;98956.47;10121925;29;20081;-79
2022/11/16 16:35:57;;;;;;;10.07;5.45;;;;;;;9.21;75.89;98962.72;10123835;29;19951;-78
2022/11/16 16:41:01;;;;;;;;;;;;;;;9.14;76.22;98965.16;10134312;29;20049;-77
2022/11/16 16:46:06;;;;;;;13.77;6.15;;;;;;;9.04;76.24;98962.53;10128074;29;19962;-77
2022/11/16 16:51:11;;;;;;;11.00;6.75;;;;;;;8.89;76.50;98950.66;10128983;29;20048;-78
2022/11/16 16:56:18;;;;;;;12.63;7.20;;;;;;;8.74;76.60;98952.94;10127360;29;20575;-77
2022/11/16 17:01:22;;;;;;;13.73;8.90;;;;;;;8.64;77.03;98951.31;10125234;29;20271;-79
2022/11/16 17:06:25;;;;;;;16.35;9.30;;;;;;;8.56;77.32;98939.50;10125563;29;20067;-78
2022/11/16 17:11:28;;;;;;;;;;;;;;;8.48;78.22;98936.72;10160370;29;20060;-78
2022/11/16 17:16:33;;;;;;;19.38;11.40;;;;;;;8.40;79.31;98925.88;10127788;29;19923;-79
2022/11/16 17:21:36;;;;;;;29.42;17.10;;;;;;;8.36;79.54;98924.47;10110503;29;20076;-78
2022/11/16 17:26:41;;;;;;;26.15;16.98;;;;;;;8.35;80.34;98922.78;10122945;29;20049;-78
2022/11/16 17:31:46;;;;;;;47.95;24.88;;;;;;;8.32;81.44;98939.97;10127611;29;20068;-78
2022/11/16 17:36:49;;;;;;;20.98;13.77;;;;;;;8.30;81.65;98925.06;10148268;29;20565;-78
2022/11/16 17:41:52;;;;;;;23.13;13.70;;;;;;;8.20;82.62;98934.94;10134184;29;20072;-77
2022/11/16 17:46:56;;;;;;;25.40;16.15;;;;;;;8.19;82.92;98939.44;10126314;29;20052;-78
2022/11/16 17:52:00;;;;;;;32.20;20.27;;;;;;;8.13;83.61;98935.50;10135326;29;20044;-80
2022/11/16 17:57:03;;;;;;;22.88;15.85;;;;;;;8.10;84.87;98921.59;10157353;29;20526;-79
2022/11/16 18:02:10;;;;;;;30.10;19.85;;;;;;;8.12;84.67;98914.28;10139879;29;20053;-79
2022/11/16 18:07:12;;;;;;;31.98;19.92;;;;;;;8.12;84.80;98914.28;10137009;29;20080;-79
2022/11/16 18:12:15;;;;;;;28.33;19.85;;;;;;;8.14;84.81;98912.28;10143269;29;20037;-79
2022/11/16 18:17:20;;;;;;;26.08;19.60;;;;;;;8.05;85.54;98915.81;10126607;29;20619;-79
2022/11/16 18:22:23;;;;;;;38.95;21.33;;;;;;;8.09;85.18;98914.53;10138207;29;20048;-79
2022/11/16 18:27:26;;;;;;;61.60;30.17;;;;;;;8.05;85.12;98908.66;10140147;29;20069;-78
2022/11/16 18:32:32;;;;;;;36.97;24.02;;;;;;;7.81;86.12;98908.25;10140135;29;20056;-78
2022/11/16 18:37:35;;;;;;;34.67;22.60;;;;;;;7.98;85.67;98907.56;10141381;29;20590;-78
2022/11/16 18:42:38;;;;;;;34.70;23.08;;;;;;;7.95;85.80;98906.00;10134994;29;20407;-77
2022/11/16 18:47:42;;;;;;;34.33;20.83;;;;;;;7.98;85.10;98915.56;10118685;29;20078;-78
2022/11/16 18:52:45;;;;;;;31.20;21.77;;;;;;;7.85;85.35;98891.81;10101457;29;20044;-78
2022/11/16 18:57:48;;;;;;;31.27;22.00;;;;;;;7.81;85.67;98894.91;10116031;29;20052;-78
2022/11/16 19:02:52;;;;;;;35.40;23.50;;;;;;;7.82;85.63;98899.28;10115524;29;20049;-78
2022/11/16 19:07:55;;;;;;;37.80;24.40;;;;;;;7.79;85.71;98894.19;10118247;29;20044;-78
2022/11/16 19:12:58;;;;;;;38.45;22.92;;;;;;;7.76;85.43;98906.00;10142588;29;20112;-78
2022/11/16 19:18:03;;;;;;;38.33;23.15;;;;;;;7.68;84.89;98901.41;10139562;29;20044;-78
2022/11/16 19:23:23;;;;;;;34.95;22.02;;;;;;;7.62;85.19;98893.91;10142545;29;20063;-78
2022/11/16 19:28:26;;;;;;;43.47;25.67;;;;;;;7.55;85.30;98890.16;10136769;29;20060;-78
2022/11/16 19:33:30;;;;;;;39.80;23.92;;;;;;;7.51;85.41;98888.72;10147290;29;20048;-78
2022/11/16 19:38:33;;;;;;;41.28;25.73;;;;;;;7.45;86.09;98891.97;10148180;29;20076;-79
2022/11/16 19:43:36;;;;;;;43.88;25.38;;;;;;;7.52;85.79;98878.91;10122552;29;20081;-78
2022/11/16 19:48:40;;;;;;;46.63;26.40;;;;;;;7.33;86.87;98869.91;10130437;29;20076;-78
2022/11/16 19:53:43;;;;;;;46.10;25.95;;;;;;;7.35;87.05;98875.09;10142060;29;20498;-77
2022/11/16 19:58:46;;;;;;;46.78;26.13;;;;;;;7.25;87.19;98873.28;10137007;29;20567;-79
2022/11/16 20:03:51;;;;;;;66.32;31.45;;;;;;;7.41;86.74;98867.38;10135807;29;20476;-80
2022/11/16 20:08:57;;;;;;;84.90;39.88;;;;;;;7.40;87.32;98873.69;10167973;29;20049;-79
2022/11/16 20:14:00;;;;;;;68.13;34.85;;;;;;;7.47;87.79;98882.00;10136207;29;20079;-79
2022/11/16 20:19:05;;;;;;;53.58;26.95;;;;;;;7.66;87.59;98873.97;10141923;29;20107;-78
2022/11/16 20:24:11;;;;;;;48.75;26.27;;;;;;;7.63;87.75;98862.72;10141936;29;20044;-78
2022/11/16 20:29:15;;;;;;;45.67;25.48;;;;;;;7.78;86.90;98858.59;10136495;29;20722;-78
2022/11/16 20:34:20;;;;;;;49.47;28.40;;;;;;;7.85;86.69;98850.88;10134311;29;20076;-78
2022/11/16 20:39:23;;;;;;;41.63;24.65;;;;;;;7.81;86.25;98854.81;10154454;29;20099;-78
2022/11/16 20:44:26;;;;;;;39.92;24.52;;;;;;;7.90;85.61;98838.75;10139433;29;20055;-78
2022/11/16 20:49:30;;;;;;;50.60;28.05;;;;;;;7.80;86.09;98845.94;10130547;29;20055;-79
2022/11/16 20:54:33;;;;;;;41.15;24.92;;;;;;;7.91;85.33;98843.09;10130908;29;20055;-78
2022/11/16 20:59:36;;;;;;;36.33;21.45;;;;;;;7.88;85.26;98826.50;10112370;29;20139;-79
2022/11/16 21:04:40;;;;;;;38.45;20.88;;;;;;;7.87;85.14;98825.69;10118410;29;20566;-79
2022/11/16 21:15:05;;;;;;;37.38;19.95;;;;;;;7.87;84.71;98838.19;10119402;29;20076;-79
2022/11/16 21:20:11;;;;;;;35.15;20.63;;;;;;;7.85;84.83;98824.13;10140009;29;20052;-79
2022/11/16 21:25:29;;;;;;;31.05;17.45;;;;;;;7.62;85.74;98823.59;10129824;29;20060;-79
2022/11/16 21:30:32;;;;;;;;;;;;;;;7.78;85.45;98815.00;10126341;29;20135;-79
2022/11/16 21:35:36;;;;;;;28.65;18.10;;;;;;;7.81;85.13;98815.53;10118862;29;20412;-79
2022/11/16 21:40:39;;;;;;;37.40;19.70;;;;;;;7.86;85.14;98815.94;10120718;29;20049;-80
2022/11/16 21:45:41;;;;;;;34.67;19.38;;;;;;;7.76;85.88;98815.13;10112827;29;20055;-80
2022/11/16 21:50:46;;;;;;;37.50;20.27;;;;;;;7.86;85.30;98801.75;10129185;29;20095;-79
2022/11/16 21:55:49;;;;;;;30.52;18.75;;;;;;;7.94;84.99;98792.00;10133608;29;20057;-79
2022/11/16 22:00:54;;;;;;;31.23;17.50;;;;;;;7.94;84.75;98789.34;10125871;29;20086;-80
2022/11/16 22:11:22;;;;;;;33.08;18.85;;;;;;;7.85;84.53;98766.16;10116952;29;20080;-78
2022/11/16 22:16:24;;;;;;;30.27;19.17;;;;;;;7.88;84.43;98747.16;10123612;29;20032;-79
2022/11/16 22:21:28;;;;;;;;;;;;;;;7.68;84.69;98738.38;10143303;29;20075;-81
2022/11/16 22:26:31;;;;;;;33.33;19.20;;;;;;;7.60;84.91;98742.75;10123257;29;20060;-80
2022/11/16 22:31:34;;;;;;;;;;;;;;;7.53;85.03;98744.31;10117938;29;20069;-80
2022/11/16 22:36:39;;;;;;;34.65;18.23;;;;;;;7.69;83.95;98741.88;10128654;29;19931;-80
2022/11/16 22:41:41;;;;;;;27.98;17.13;;;;;;;7.67;84.18;98738.50;10122153;29;20041;-79
2022/11/16 22:46:44;;;;;;;33.78;18.60;;;;;;;7.67;83.65;98725.13;10115910;29;20056;-80
2022/11/16 22:51:48;;;;;;;37.50;19.13;;;;;;;7.65;83.39;98717.28;10122419;29;20061;-78
2022/11/16 22:56:51;;;;;;;33.20;18.98;;;;;;;7.51;83.74;98709.72;10121304;29;20128;-80
2022/11/16 23:01:54;;;;;;;31.25;17.70;;;;;;;7.47;83.40;98690.47;10115835;29;20063;-80
2022/11/16 23:06:59;;;;;;;28.88;18.23;;;;;;;7.41;84.11;98682.22;10127372;29;20573;-79
2022/11/16 23:17:18;;;;;;;31.27;18.15;;;;;;;7.48;83.37;98673.44;10109373;29;20087;-81
2022/11/16 23:27:45;;;;;;;35.97;16.02;;;;;;;7.44;82.58;98657.88;10159645;29;20036;-78
2022/11/16 23:32:48;;;;;;;32.10;15.98;;;;;;;7.35;83.14;98651.59;10126967;29;20118;-80
2022/11/16 23:37:54;;;;;;;25.40;15.32;;;;;;;7.17;84.04;98643.47;10116767;29;20131;-80
2022/11/16 23:48:19;;;;;;;31.88;16.38;;;;;;;7.46;82.58;98631.84;10124764;29;20029;-78
2022/11/16 23:53:23;;;;;;;23.17;15.73;;;;;;;7.33;82.80;98616.16;10156555;29;20055;-79
2022/11/16 23:58:25;;;;;;;28.17;16.67;;;;;;;7.27;83.05;98606.91;10135814;29;20080;-79
